EmailTwitter


Observations de surface / France / LFBO (07630)

Régions: Québec | Canada | États-Unis | Europe | France | UK | Elsewhere
Station
Affichage
Infos & localisation pour LFBO (07630) | Aide pour décoder les METARs

Observations prises le 2017-05-28 à 20H00 UTC à TOULOUSE/BLAGNAC, FR (LFBO)

Température: 22.0 Celsius

Point de rosée: 9.0 Celsius

Humidité relative: 43%

Vents: Sud-est à 22 km/h ou 12 noeuds.

Pression au niveau moyen de la mer: 101.60 kilopascals.

Observation METAR:

LFBO 282000Z AUTO 14012KT 110V170 CAVOK 22/09 Q1016 NOSIG=